Time;durP1;ratioP1;P1;durP2;ratioP2;P2;SDS_P1;SDS_P2;PMS_P1;PMS_P2;Temp;Humidity;BMP_temperature;BMP_pressure;BME280_temperature;BME280_humidity;BME280_pressure;Samples;Min_cycle;Max_cycle;Signal;HPM_P1;HPM_P2
2022/04/19 00:00:54;;;;;;;2.42;2.10;;;;;19.20;100372.00;;;;2070915;28;20268;-46
2022/04/19 00:01:55;;;;;;;2.10;1.93;;;;;19.20;100369.00;;;;2070981;28;20206;-45
2022/04/19 00:02:55;;;;;;;2.00;1.80;;;;;19.20;100366.00;;;;2071250;28;20252;-45
2022/04/19 00:03:55;;;;;;;2.17;2.00;;;;;19.20;100367.00;;;;2078931;28;21801;-46
2022/04/19 00:04:58;;;;;;;2.47;2.10;;;;;19.20;100369.00;;;;2079016;28;20244;-46
2022/04/19 00:05:59;;;;;;;3.15;2.20;;;;;19.20;100365.00;;;;2074924;28;20237;-45
2022/04/19 00:06:59;;;;;;;2.60;1.97;;;;;19.20;100367.00;;;;2074870;28;20224;-45
2022/04/19 00:08:00;;;;;;;2.33;2.10;;;;;19.20;100363.00;;;;2078649;28;20209;-45
2022/04/19 00:09:00;;;;;;;1.85;1.75;;;;;19.20;100369.00;;;;2078820;28;20304;-47
2022/04/19 00:10:00;;;;;;;2.40;2.20;;;;;19.20;100365.00;;;;2078437;28;20201;-46
2022/04/19 00:11:02;;;;;;;2.27;2.07;;;;;19.20;100367.00;;;;2075373;28;20246;-46
2022/04/19 00:12:02;;;;;;;2.13;1.92;;;;;19.20;100359.00;;;;2078314;28;20514;-44
2022/04/19 00:13:04;;;;;;;2.10;1.90;;;;;19.20;100359.00;;;;2078223;28;20308;-45
2022/04/19 00:14:07;;;;;;;3.15;2.88;;;;;19.20;100366.00;;;;2078117;28;20283;-47
2022/04/19 00:15:08;;;;;;;2.80;2.60;;;;;19.20;100368.00;;;;2081932;28;20292;-48
2022/04/19 00:16:08;;;;;;;2.40;2.10;;;;;19.20;100365.00;;;;2078289;28;20267;-46
2022/04/19 00:17:08;;;;;;;2.50;2.30;;;;;19.20;100361.00;;;;2078679;28;20224;-46
2022/04/19 00:18:09;;;;;;;2.50;2.30;;;;;19.20;100362.00;;;;2078760;28;20209;-46
2022/04/19 00:19:09;;;;;;;2.80;2.50;;;;;19.20;100361.00;;;;2078939;28;20244;-45
2022/04/19 00:20:10;;;;;;;2.20;2.00;;;;;19.20;100361.00;;;;2078671;28;20263;-45
2022/04/19 00:21:10;;;;;;;1.90;1.67;;;;;19.20;100362.00;;;;2078539;28;20205;-45
2022/04/19 00:22:12;;;;;;;2.80;2.50;;;;;19.20;100360.00;;;;2078878;28;20460;-46
2022/04/19 00:23:13;;;;;;;2.25;2.05;;;;;19.20;100351.00;;;;2078647;28;20217;-47
2022/04/19 00:24:13;;;;;;;2.20;1.93;;;;;19.20;100354.00;;;;2076326;28;20566;-46
2022/04/19 00:25:13;;;;;;;2.20;2.00;;;;;19.20;100355.00;;;;2075450;28;20213;-45
2022/04/19 00:26:14;;;;;;;2.27;2.07;;;;;19.20;100361.00;;;;2069859;28;20264;-45
2022/04/19 00:27:14;;;;;;;2.17;2.00;;;;;19.10;100357.00;;;;2070514;28;20699;-45
2022/04/19 00:28:15;;;;;;;2.30;2.10;;;;;19.20;100358.00;;;;2070576;28;20309;-46
2022/04/19 00:29:15;;;;;;;2.63;1.93;;;;;19.20;100362.00;;;;2070704;28;20218;-44
2022/04/19 00:30:15;;;;;;;2.23;1.70;;;;;19.20;100352.00;;;;2070752;28;20482;-47
2022/04/19 00:31:15;;;;;;;1.93;1.83;;;;;19.20;100362.00;;;;2070638;28;20319;-46
2022/04/19 00:32:16;;;;;;;2.17;2.00;;;;;19.20;100354.00;;;;2070656;28;20276;-46
2022/04/19 00:33:16;;;;;;;2.47;2.27;;;;;19.20;100354.00;;;;2070610;28;20218;-46
2022/04/19 00:34:17;;;;;;;2.27;2.07;;;;;19.20;100352.00;;;;2070540;28;20293;-45
2022/04/19 00:35:17;;;;;;;2.83;2.10;;;;;19.20;100352.00;;;;2070067;28;20675;-45
2022/04/19 00:36:23;;;;;;;3.00;2.50;;;;;19.10;100355.00;;;;2070202;28;20756;-46
2022/04/19 00:37:23;;;;;;;2.20;2.00;;;;;19.20;100351.00;;;;2070256;28;20454;-47
2022/04/19 00:38:24;;;;;;;2.73;2.20;;;;;19.20;100356.00;;;;2070712;28;20580;-48
2022/04/19 00:39:24;;;;;;;2.10;1.90;;;;;19.20;100355.00;;;;2070719;28;21242;-45
2022/04/19 00:40:25;;;;;;;2.30;2.10;;;;;19.20;100350.00;;;;2070505;28;20279;-45
2022/04/19 00:41:25;;;;;;;2.60;2.40;;;;;19.20;100350.00;;;;2069956;28;20221;-48
2022/04/19 00:42:27;;;;;;;2.40;2.20;;;;;19.20;100352.00;;;;2069888;28;20760;-47
2022/04/19 00:43:28;;;;;;;2.42;2.22;;;;;19.20;100355.00;;;;2070317;28;20284;-46
2022/04/19 00:44:28;;;;;;;2.23;2.03;;;;;19.20;100344.00;;;;2070244;28;20238;-46
2022/04/19 00:45:34;;;;;;;2.37;2.17;;;;;19.10;100350.00;;;;2069860;28;20214;-45
2022/04/19 00:46:34;;;;;;;2.50;2.30;;;;;19.20;100348.00;;;;2074193;28;20988;-46
2022/04/19 00:47:35;;;;;;;2.30;2.10;;;;;19.20;100343.00;;;;2078595;28;20220;-45
2022/04/19 00:48:35;;;;;;;2.33;2.13;;;;;19.20;100337.00;;;;2078625;28;20213;-45
2022/04/19 00:49:38;;;;;;;2.30;2.10;;;;;19.10;100343.00;;;;2078554;28;20278;-45
2022/04/19 00:50:38;;;;;;;2.20;2.00;;;;;19.10;100338.00;;;;2077825;28;20903;-45
2022/04/19 00:51:38;;;;;;;2.80;2.47;;;;;19.20;100334.00;;;;2077632;28;20312;-47
2022/04/19 00:52:39;;;;;;;2.20;2.00;;;;;19.20;100337.00;;;;2075746;28;20236;-46
2022/04/19 00:53:40;;;;;;;2.30;2.10;;;;;19.10;100341.00;;;;2061494;28;20219;-45
2022/04/19 00:54:41;;;;;;;2.80;2.60;;;;;19.10;100348.00;;;;2077315;28;20217;-45
2022/04/19 00:55:42;;;;;;;2.40;2.20;;;;;19.10;100344.00;;;;2076951;28;20459;-45
2022/04/19 00:56:42;;;;;;;2.80;2.60;;;;;19.10;100333.00;;;;2070103;28;20226;-45
2022/04/19 00:57:43;;;;;;;2.50;2.30;;;;;19.10;100334.00;;;;2074501;28;20238;-46
2022/04/19 00:58:43;;;;;;;2.87;2.37;;;;;19.10;100339.00;;;;2070449;28;20228;-45
2022/04/19 00:59:44;;;;;;;2.67;2.47;;;;;19.10;100334.00;;;;2070533;28;20300;-45
2022/04/19 01:00:45;;;;;;;2.03;1.92;;;;;19.10;100336.00;;;;2068591;28;20218;-47
2022/04/19 01:01:45;;;;;;;3.10;1.83;;;;;19.10;100334.00;;;;2069813;28;20217;-48
2022/04/19 01:02:45;;;;;;;2.23;2.03;;;;;19.20;100335.00;;;;2069844;28;20245;-46
2022/04/19 01:03:46;;;;;;;2.47;2.13;;;;;19.10;100332.00;;;;2069584;28;21020;-46
2022/04/19 01:04:46;;;;;;;2.10;1.90;;;;;19.10;100325.00;;;;2077615;28;20287;-46
2022/04/19 01:05:47;;;;;;;2.13;1.93;;;;;19.10;100324.00;;;;2077098;28;20405;-44
2022/04/19 01:06:47;;;;;;;2.50;2.30;;;;;19.10;100336.00;;;;2071056;28;20656;-45
2022/04/19 01:07:47;;;;;;;2.30;2.10;;;;;19.10;100316.00;;;;2069746;28;20210;-46
2022/04/19 01:08:48;;;;;;;2.30;2.10;;;;;19.10;100325.00;;;;2069706;28;20346;-45
2022/04/19 01:09:48;;;;;;;2.53;2.33;;;;;19.10;100331.00;;;;2069748;28;20217;-45
2022/04/19 01:10:49;;;;;;;2.53;2.07;;;;;19.10;100330.00;;;;2070387;28;20206;-45
2022/04/19 01:13:17;;;;;;;2.60;2.40;;;;;19.10;100313.00;;;;2070046;28;20210;-45
2022/04/19 01:14:18;;;;;;;2.70;2.20;;;;;19.10;100321.00;;;;2069907;28;20225;-46
2022/04/19 01:15:18;;;;;;;2.30;2.10;;;;;19.10;100264.00;;;;2069457;28;20737;-46
2022/04/19 01:16:19;;;;;;;2.60;2.40;;;;;19.10;100322.00;;;;2069466;28;20218;-45
2022/04/19 01:17:19;;;;;;;2.03;1.83;;;;;19.10;100323.00;;;;2060540;28;20242;-45
2022/04/19 01:18:22;;;;;;;2.40;2.20;;;;;19.10;100308.00;;;;2053458;28;20212;-48
2022/04/19 01:19:23;;;;;;;2.40;2.20;;;;;19.10;100314.00;;;;2060736;28;20218;-45
2022/04/19 01:20:23;;;;;;;2.30;2.10;;;;;18.90;100301.00;;;;2060592;28;20309;-45
2022/04/19 01:21:26;;;;;;;2.20;1.90;;;;;19.10;100315.00;;;;2058586;28;20238;-45
2022/04/19 01:22:26;;;;;;;2.28;2.08;;;;;19.10;100310.00;;;;2067357;28;20219;-45
2022/04/19 01:23:28;;;;;;;2.30;2.10;;;;;19.10;100324.00;;;;2070287;28;20241;-45
2022/04/19 01:24:28;;;;;;;2.70;2.50;;;;;19.10;100310.00;;;;2074797;28;20217;-45
2022/04/19 01:25:29;;;;;;;2.57;2.37;;;;;19.10;100314.00;;;;2077629;28;20243;-45
2022/04/19 01:26:30;;;;;;;2.23;2.03;;;;;19.10;100305.00;;;;2078350;28;20217;-45
2022/04/19 01:27:30;;;;;;;2.50;2.30;;;;;19.10;100306.00;;;;2070992;28;20209;-45
2022/04/19 01:28:30;;;;;;;2.20;2.00;;;;;19.10;100305.00;;;;2074750;28;20457;-46
2022/04/19 01:29:33;;;;;;;2.97;2.10;;;;;19.10;100302.00;;;;2078510;28;20223;-45
2022/04/19 01:30:33;;;;;;;2.25;2.05;;;;;19.10;100309.00;;;;2078352;28;20647;-46
2022/04/19 01:31:34;;;;;;;2.40;2.10;;;;;19.10;100305.00;;;;2078373;28;20224;-45
2022/04/19 01:32:34;;;;;;;2.40;2.20;;;;;19.10;100309.00;;;;2078465;28;20218;-45
2022/04/19 01:33:34;;;;;;;1.97;1.87;;;;;19.10;100309.00;;;;2078443;28;20209;-47
2022/04/19 01:34:35;;;;;;;2.80;2.40;;;;;19.10;100305.00;;;;2078223;28;20217;-46
2022/04/19 01:35:35;;;;;;;2.03;1.93;;;;;19.10;100308.00;;;;2076526;28;20279;-45
2022/04/19 01:36:36;;;;;;;2.40;2.20;;;;;19.10;100307.00;;;;2078450;28;20232;-45
2022/04/19 01:37:37;;;;;;;2.20;2.00;;;;;19.10;100302.00;;;;2078284;28;20232;-45
2022/04/19 01:38:38;;;;;;;2.53;2.33;;;;;19.10;100306.00;;;;2078434;28;21041;-45
2022/04/19 01:40:57;;;;;;;2.65;2.45;;;;;19.10;100307.00;;;;2070140;28;20217;-48
2022/04/19 01:41:57;;;;;;;3.50;2.40;;;;;19.10;100306.00;;;;2070436;28;20248;-46
2022/04/19 01:42:58;;;;;;;2.37;2.17;;;;;19.10;100301.00;;;;2070307;28;20237;-45
2022/04/19 01:43:59;;;;;;;2.47;2.28;;;;;19.10;100314.00;;;;2072387;28;20848;-46
2022/04/19 01:45:03;;;;;;;2.30;2.07;;;;;19.10;100301.00;;;;2078180;28;20213;-46
2022/04/19 01:46:05;;;;;;;2.60;2.40;;;;;19.10;100308.00;;;;2077539;28;20236;-47
2022/04/19 01:47:07;;;;;;;2.33;2.13;;;;;19.10;100303.00;;;;2078367;28;20201;-45
2022/04/19 01:48:08;;;;;;;2.15;2.00;;;;;19.10;100305.00;;;;2078275;28;20218;-47
2022/04/19 01:49:08;;;;;;;2.45;2.25;;;;;19.10;100302.00;;;;2078076;28;20233;-45
2022/04/19 01:50:10;;;;;;;2.40;2.20;;;;;19.10;100309.00;;;;2078230;28;20232;-45
2022/04/19 01:51:12;;;;;;;2.58;2.38;;;;;19.10;100308.00;;;;2078283;28;20271;-45
2022/04/19 01:52:12;;;;;;;2.60;2.40;;;;;19.10;100304.00;;;;2078472;28;20309;-46
2022/04/19 01:53:13;;;;;;;2.50;2.30;;;;;19.10;100307.00;;;;2078199;28;20217;-45
2022/04/19 01:54:14;;;;;;;2.30;2.10;;;;;19.10;100299.00;;;;2078071;28;20217;-47
2022/04/19 01:55:16;;;;;;;2.60;2.40;;;;;18.90;100301.00;;;;2078210;28;20819;-45
2022/04/19 01:56:16;;;;;;;2.35;2.15;;;;;19.10;100302.00;;;;2077797;28;20221;-46
2022/04/19 01:57:19;;;;;;;2.40;2.17;;;;;19.10;100305.00;;;;2074075;28;20211;-45
2022/04/19 01:58:19;;;;;;;3.00;2.58;;;;;19.10;100304.00;;;;2070242;28;20210;-45
2022/04/19 01:59:20;;;;;;;1.90;1.80;;;;;19.10;100303.00;;;;2076380;28;20216;-45
2022/04/19 02:00:20;;;;;;;2.60;2.40;;;;;19.10;100299.00;;;;2078288;28;20213;-47
2022/04/19 02:01:20;;;;;;;2.60;2.40;;;;;19.10;100297.00;;;;2078343;28;20296;-46
2022/04/19 02:02:21;;;;;;;2.50;2.30;;;;;19.10;100299.00;;;;2078637;28;20627;-45
2022/04/19 02:03:21;;;;;;;2.40;2.20;;;;;19.10;100293.00;;;;2078310;28;20678;-46
2022/04/19 02:04:21;;;;;;;2.87;2.30;;;;;19.10;100305.00;;;;2077895;28;20763;-45
2022/04/19 02:05:22;;;;;;;2.17;1.97;;;;;19.10;100299.00;;;;2073654;28;20219;-46
2022/04/19 02:06:23;;;;;;;2.00;1.80;;;;;19.10;100299.00;;;;2070063;28;20277;-46
2022/04/19 02:07:23;;;;;;;2.40;2.20;;;;;19.10;100293.00;;;;2069980;28;20305;-47
2022/04/19 02:08:23;;;;;;;2.73;2.53;;;;;19.10;100299.00;;;;2070136;28;20504;-48
2022/04/19 02:09:24;;;;;;;2.27;2.07;;;;;19.10;100300.00;;;;2073930;28;20279;-46
2022/04/19 02:10:25;;;;;;;2.45;2.25;;;;;19.10;100301.00;;;;2070564;28;20293;-46
2022/04/19 02:11:25;;;;;;;2.57;2.37;;;;;19.10;100300.00;;;;2071770;28;20269;-46
2022/04/19 02:12:26;;;;;;;2.93;2.23;;;;;19.10;100293.00;;;;2071781;28;20656;-46
2022/04/19 02:13:27;;;;;;;2.43;2.23;;;;;19.10;100296.00;;;;2071170;28;20781;-45
2022/04/19 02:14:27;;;;;;;2.33;2.13;;;;;19.10;100298.00;;;;2070818;28;20214;-46
2022/04/19 02:15:28;;;;;;;2.60;2.40;;;;;19.10;100290.00;;;;2070562;28;20938;-46
2022/04/19 02:16:28;;;;;;;2.37;2.17;;;;;19.10;100295.00;;;;2070727;28;20214;-46
2022/04/19 02:17:28;;;;;;;2.67;2.47;;;;;19.10;100287.00;;;;2078952;28;20216;-45
2022/04/19 02:18:29;;;;;;;2.50;2.30;;;;;19.10;100296.00;;;;2071613;28;20218;-45
2022/04/19 02:19:33;;;;;;;2.60;2.40;;;;;19.10;100294.00;;;;2071563;28;20210;-46
2022/04/19 02:20:34;;;;;;;2.60;2.40;;;;;19.10;100290.00;;;;2071614;28;20218;-47
2022/04/19 02:21:34;;;;;;;3.03;2.70;;;;;19.10;100294.00;;;;2071474;28;20202;-47
2022/04/19 02:22:34;;;;;;;2.40;2.20;;;;;19.10;100290.00;;;;2072821;28;20763;-46
2022/04/19 02:23:35;;;;;;;2.53;2.30;;;;;19.10;100286.00;;;;2079864;28;20788;-46
2022/04/19 02:24:36;;;;;;;2.80;2.50;;;;;19.10;100296.00;;;;2079558;28;20571;-46
2022/04/19 02:25:36;;;;;;;2.40;2.20;;;;;19.10;100289.00;;;;2078957;28;20213;-46
2022/04/19 02:26:36;;;;;;;2.70;2.50;;;;;19.10;100289.00;;;;2079686;28;20210;-45
2022/04/19 02:27:37;;;;;;;2.20;2.00;;;;;19.10;100290.00;;;;2079555;28;20213;-46
2022/04/19 02:28:37;;;;;;;2.73;2.53;;;;;19.10;100302.00;;;;2076852;28;20206;-46
2022/04/19 02:29:38;;;;;;;2.43;2.23;;;;;19.00;100294.00;;;;2071905;28;20301;-46
2022/04/19 02:30:38;;;;;;;2.70;2.50;;;;;19.10;100296.00;;;;2075936;28;20209;-46
2022/04/19 02:31:38;;;;;;;3.00;2.40;;;;;19.10;100287.00;;;;2079469;28;20244;-47
2022/04/19 02:32:49;;;;;;;2.57;2.37;;;;;19.10;100291.00;;;;2079775;28;20240;-47
2022/04/19 02:33:49;;;;;;;3.58;2.80;;;;;19.10;100293.00;;;;2079827;28;20217;-45
2022/04/19 02:34:50;;;;;;;3.10;2.83;;;;;19.00;100289.00;;;;2079836;28;20220;-47
2022/04/19 02:35:52;;;;;;;2.45;2.25;;;;;19.10;100290.00;;;;2079288;28;20220;-47
2022/04/19 02:36:53;;;;;;;2.65;2.40;;;;;19.10;100299.00;;;;2075850;28;20218;-46
2022/04/19 02:37:55;;;;;;;2.50;2.30;;;;;19.10;100300.00;;;;2071906;28;20317;-47
2022/04/19 02:38:57;;;;;;;3.00;2.15;;;;;19.10;100297.00;;;;2071375;28;20290;-46
2022/04/19 02:39:57;;;;;;;2.40;2.20;;;;;19.00;100300.00;;;;2071316;28;20249;-46
2022/04/19 02:40:57;;;;;;;2.20;2.00;;;;;19.10;100297.00;;;;2071984;28;20296;-45
2022/04/19 02:41:58;;;;;;;2.40;2.20;;;;;19.10;100301.00;;;;2071571;28;20210;-47
2022/04/19 02:42:58;;;;;;;3.00;2.60;;;;;19.00;100309.00;;;;2071317;28;20218;-46
2022/04/19 02:43:59;;;;;;;2.30;2.20;;;;;19.10;100302.00;;;;2071515;28;20218;-47
2022/04/19 02:45:01;;;;;;;2.70;2.23;;;;;19.10;100304.00;;;;2070969;28;20565;-46
2022/04/19 02:46:01;;;;;;;2.67;2.35;;;;;19.00;100303.00;;;;2069940;28;20210;-47
2022/04/19 02:47:02;;;;;;;2.33;2.13;;;;;19.00;100296.00;;;;2070068;28;20237;-47
2022/04/19 02:48:04;;;;;;;2.17;1.98;;;;;19.00;100298.00;;;;2070695;28;20207;-46
2022/04/19 02:49:05;;;;;;;2.47;2.28;;;;;19.00;100288.00;;;;2070483;28;20211;-47
2022/04/19 02:50:06;;;;;;;3.30;2.50;;;;;19.10;100297.00;;;;2071078;28;20551;-47
2022/04/19 02:51:06;;;;;;;2.70;2.50;;;;;19.00;100300.00;;;;2070667;28;20216;-47
2022/04/19 02:52:06;;;;;;;2.73;2.53;;;;;19.10;100303.00;;;;2071458;28;20460;-46
2022/04/19 02:53:07;;;;;;;2.57;2.37;;;;;19.00;100304.00;;;;2070434;28;20237;-47
2022/04/19 02:54:07;;;;;;;2.50;2.30;;;;;18.80;100307.00;;;;2071306;28;20230;-47
2022/04/19 02:55:08;;;;;;;2.60;2.40;;;;;19.00;100301.00;;;;2071269;28;20337;-47
2022/04/19 02:56:08;;;;;;;2.40;2.20;;;;;19.00;100294.00;;;;2070714;28;20216;-47
2022/04/19 02:57:08;;;;;;;2.80;2.60;;;;;19.00;100300.00;;;;2070098;28;20230;-45
2022/04/19 02:58:09;;;;;;;2.63;2.40;;;;;19.00;100305.00;;;;2075570;28;20698;-45
2022/04/19 02:59:09;;;;;;;2.60;2.40;;;;;19.00;100308.00;;;;2079605;28;20197;-47
2022/04/19 03:00:10;;;;;;;2.80;2.60;;;;;19.00;100304.00;;;;2079365;28;20245;-47
2022/04/19 03:01:11;;;;;;;2.73;2.53;;;;;19.00;100300.00;;;;2079503;28;20208;-47
2022/04/19 03:02:11;;;;;;;2.90;2.65;;;;;19.00;100306.00;;;;2079369;28;20487;-47
2022/04/19 03:03:12;;;;;;;2.63;2.43;;;;;19.00;100305.00;;;;2079341;28;20686;-46
2022/04/19 03:04:13;;;;;;;2.60;2.30;;;;;19.00;100311.00;;;;2079411;28;20213;-47
2022/04/19 03:05:13;;;;;;;2.60;2.40;;;;;19.00;100304.00;;;;2079252;28;20487;-47
2022/04/19 03:06:14;;;;;;;2.50;2.30;;;;;19.00;100305.00;;;;2078645;28;20221;-47
2022/04/19 03:07:14;;;;;;;2.50;2.30;;;;;19.00;100304.00;;;;2079135;28;20256;-47
2022/04/19 03:08:14;;;;;;;3.13;2.30;;;;;19.00;100304.00;;;;2079473;28;20218;-47
2022/04/19 03:09:15;;;;;;;2.60;2.40;;;;;19.00;100305.00;;;;2079309;28;20217;-47
2022/04/19 03:10:16;;;;;;;2.50;2.30;;;;;19.00;100295.00;;;;2069465;28;20238;-47
2022/04/19 03:11:16;;;;;;;2.40;2.20;;;;;19.00;100305.00;;;;2069853;28;20446;-47
2022/04/19 03:12:16;;;;;;;2.73;2.53;;;;;19.00;100261.00;;;;2069760;28;20214;-47
2022/04/19 03:13:17;;;;;;;2.90;2.40;;;;;19.00;100300.00;;;;2070414;28;20585;-46
2022/04/19 03:14:17;;;;;;;2.63;2.43;;;;;19.00;100306.00;;;;2069562;28;20292;-47
2022/04/19 03:15:17;;;;;;;2.33;2.13;;;;;19.00;100323.00;;;;2070094;28;20321;-47
2022/04/19 03:16:18;;;;;;;2.80;2.40;;;;;19.00;100298.00;;;;2070378;28;20328;-47
2022/04/19 03:17:18;;;;;;;3.30;2.30;;;;;19.00;100302.00;;;;2070024;28;20253;-47
2022/04/19 03:18:19;;;;;;;2.63;2.43;;;;;19.00;100293.00;;;;2069713;28;20257;-47
2022/04/19 03:19:19;;;;;;;2.37;2.10;;;;;19.00;100292.00;;;;2069948;28;20221;-47
2022/04/19 03:20:19;;;;;;;2.60;2.37;;;;;19.00;100290.00;;;;2069765;28;20222;-47
2022/04/19 03:21:19;;;;;;;2.60;2.40;;;;;19.00;100288.00;;;;2075696;28;20229;-46
2022/04/19 03:22:20;;;;;;;2.40;2.20;;;;;19.00;100295.00;;;;2078578;28;20363;-47
2022/04/19 03:28:35;;;;;;;2.92;2.63;;;;;19.00;100300.00;;;;2070594;28;20221;-47
2022/04/19 03:29:35;;;;;;;2.80;2.60;;;;;19.00;100290.00;;;;2070640;28;20218;-47
2022/04/19 03:30:36;;;;;;;2.60;2.40;;;;;19.00;100300.00;;;;2071898;28;20240;-46
2022/04/19 03:31:36;;;;;;;3.00;2.70;;;;;19.00;100292.00;;;;2078734;28;20234;-46
2022/04/19 03:32:37;;;;;;;2.60;2.40;;;;;19.00;100302.00;;;;2075839;28;20940;-47
2022/04/19 03:33:37;;;;;;;2.30;2.10;;;;;19.00;100291.00;;;;2070480;28;20642;-46
2022/04/19 03:34:39;;;;;;;3.00;2.70;;;;;19.00;100289.00;;;;2070477;28;20237;-48
2022/04/19 03:35:40;;;;;;;2.55;2.35;;;;;19.00;100296.00;;;;2069895;28;20249;-46
2022/04/19 03:36:40;;;;;;;2.80;2.60;;;;;19.00;100299.00;;;;2070753;28;20310;-46
2022/04/19 03:37:41;;;;;;;2.90;2.40;;;;;19.00;100296.00;;;;2078259;28;20225;-46
2022/04/19 03:38:43;;;;;;;2.50;2.30;;;;;19.00;100294.00;;;;2077236;28;20240;-49
2022/04/19 03:39:43;;;;;;;2.30;2.10;;;;;19.00;100301.00;;;;2070548;28;20238;-46
2022/04/19 03:40:44;;;;;;;3.20;2.67;;;;;19.00;100290.00;;;;2070518;28;20206;-46
2022/04/19 03:41:44;;;;;;;2.87;2.67;;;;;19.00;100299.00;;;;2070361;28;20253;-47
2022/04/19 03:42:45;;;;;;;2.60;2.37;;;;;19.00;100292.00;;;;2070459;28;20268;-46
2022/04/19 03:43:45;;;;;;;2.43;2.23;;;;;19.00;100300.00;;;;2070918;28;20214;-47
2022/04/19 03:44:45;;;;;;;2.67;2.47;;;;;19.00;100295.00;;;;2070847;28;20268;-46
2022/04/19 03:45:46;;;;;;;2.67;2.47;;;;;19.00;100304.00;;;;2070046;28;20241;-47
2022/04/19 03:48:05;;;;;;;2.30;2.15;;;;;19.00;100294.00;;;;2075209;28;20713;-45
2022/04/19 03:49:06;;;;;;;2.90;2.47;;;;;19.00;100292.00;;;;2079121;28;20660;-46
2022/04/19 03:50:07;;;;;;;2.40;2.20;;;;;19.00;100293.00;;;;2079023;28;20304;-47
2022/04/19 03:51:07;;;;;;;2.80;2.60;;;;;19.00;100293.00;;;;2079050;28;20228;-46
2022/04/19 03:52:08;;;;;;;2.87;2.60;;;;;19.00;100296.00;;;;2071817;28;20226;-47
2022/04/19 03:53:08;;;;;;;2.90;2.50;;;;;19.00;100299.00;;;;2079121;28;20224;-47
2022/04/19 03:54:08;;;;;;;3.03;2.47;;;;;19.00;100294.00;;;;2079151;28;20221;-47
2022/04/19 03:55:09;;;;;;;2.80;2.60;;;;;19.00;100297.00;;;;2078597;28;20219;-47
2022/04/19 03:56:09;;;;;;;2.80;2.57;;;;;19.00;100225.00;;;;2078228;28;20217;-47
2022/04/19 03:57:10;;;;;;;2.67;2.47;;;;;19.00;100301.00;;;;2078957;28;20742;-46
2022/04/19 03:58:10;;;;;;;2.97;2.77;;;;;19.00;100300.00;;;;2079141;28;20830;-46
2022/04/19 03:59:11;;;;;;;2.67;2.20;;;;;19.00;100303.00;;;;2079113;28;20229;-47
2022/04/19 04:00:11;;;;;;;3.00;2.50;;;;;19.00;100306.00;;;;2077913;28;20241;-52
2022/04/19 04:01:12;;;;;;;2.93;2.60;;;;;19.00;100303.00;;;;2078803;28;20229;-48
2022/04/19 04:02:13;;;;;;;3.67;2.58;;;;;19.00;100302.00;;;;2078841;28;20249;-47
2022/04/19 04:03:13;;;;;;;2.70;2.50;;;;;19.00;100297.00;;;;2079002;28;20221;-47
2022/04/19 04:04:13;;;;;;;2.77;2.57;;;;;19.00;100303.00;;;;2078698;28;20222;-48
2022/04/19 04:05:14;;;;;;;2.50;2.30;;;;;19.00;100304.00;;;;2078464;28;20284;-47
2022/04/19 04:06:16;;;;;;;2.67;2.43;;;;;19.00;100297.00;;;;2078211;28;20213;-47
2022/04/19 04:07:17;;;;;;;2.67;2.47;;;;;19.00;100301.00;;;;2078914;28;20221;-47
2022/04/19 04:08:17;;;;;;;2.47;2.27;;;;;19.00;100301.00;;;;2078846;28;20308;-46
2022/04/19 04:09:17;;;;;;;2.70;2.50;;;;;19.00;100300.00;;;;2078965;28;20296;-45
2022/04/19 04:10:18;;;;;;;2.50;2.30;;;;;19.00;100307.00;;;;2078930;28;20214;-45
2022/04/19 04:11:18;;;;;;;2.57;2.37;;;;;19.00;100302.00;;;;2072272;28;20230;-47
2022/04/19 04:12:19;;;;;;;2.70;2.50;;;;;19.00;100298.00;;;;2070694;28;20225;-45
2022/04/19 04:13:19;;;;;;;2.90;2.60;;;;;19.00;100306.00;;;;2070857;28;20210;-48
2022/04/19 04:14:19;;;;;;;2.90;2.60;;;;;19.00;100302.00;;;;2070669;28;20210;-47
2022/04/19 04:15:20;;;;;;;3.00;2.63;;;;;19.00;100305.00;;;;2069691;28;20220;-46
2022/04/19 04:16:20;;;;;;;2.67;2.47;;;;;19.00;100302.00;;;;2070479;28;20216;-47
2022/04/19 04:17:21;;;;;;;3.00;2.53;;;;;19.00;100308.00;;;;2070431;28;20222;-45
2022/04/19 04:18:21;;;;;;;3.10;2.70;;;;;19.00;100303.00;;;;2070018;28;20770;-45
2022/04/19 04:19:21;;;;;;;2.77;2.50;;;;;19.00;100295.00;;;;2070082;28;20292;-46
2022/04/19 04:20:22;;;;;;;2.30;2.10;;;;;19.00;100305.00;;;;2070612;28;20285;-46
2022/04/19 04:21:22;;;;;;;2.80;2.60;;;;;19.00;100307.00;;;;2070708;28;20217;-45
2022/04/19 04:22:22;;;;;;;3.00;2.70;;;;;19.00;100301.00;;;;2070776;28;20217;-45
2022/04/19 04:23:23;;;;;;;2.70;2.50;;;;;19.00;100311.00;;;;2070758;28;20230;-44
2022/04/19 04:24:23;;;;;;;2.80;2.60;;;;;19.00;100301.00;;;;2070501;28;20212;-45
2022/04/19 04:25:23;;;;;;;2.57;2.37;;;;;19.00;100297.00;;;;2069759;28;20233;-46
2022/04/19 04:26:24;;;;;;;2.90;2.70;;;;;19.00;100307.00;;;;2070818;28;20222;-47
2022/04/19 04:27:24;;;;;;;2.60;2.40;;;;;19.00;100311.00;;;;2070461;28;20209;-46
2022/04/19 04:28:25;;;;;;;2.63;2.43;;;;;19.00;100300.00;;;;2070591;28;20233;-45
2022/04/19 04:29:25;;;;;;;2.73;2.53;;;;;19.00;100307.00;;;;2070615;28;20217;-48
2022/04/19 04:30:25;;;;;;;2.63;2.43;;;;;19.00;100310.00;;;;2070276;28;20245;-47
2022/04/19 04:31:26;;;;;;;3.00;2.70;;;;;19.00;100310.00;;;;2070797;28;20206;-45
2022/04/19 04:32:26;;;;;;;2.93;2.73;;;;;19.00;100307.00;;;;2070491;28;20222;-48
2022/04/19 04:33:26;;;;;;;2.87;2.67;;;;;19.00;100306.00;;;;2070233;28;20242;-45
2022/04/19 04:34:27;;;;;;;2.70;2.50;;;;;19.00;100302.00;;;;2070493;28;20304;-46
2022/04/19 04:35:27;;;;;;;3.37;2.77;;;;;19.00;100311.00;;;;2069552;28;20217;-45
2022/04/19 04:36:27;;;;;;;2.80;2.60;;;;;18.90;100306.00;;;;2070640;28;20249;-47
2022/04/19 04:37:28;;;;;;;2.30;2.10;;;;;19.00;100308.00;;;;2070694;28;20222;-46
2022/04/19 04:38:28;;;;;;;3.00;2.47;;;;;19.00;100311.00;;;;2071095;28;20768;-46
2022/04/19 04:39:28;;;;;;;3.00;2.70;;;;;19.00;100312.00;;;;2071036;28;20694;-46
2022/04/19 04:40:29;;;;;;;2.47;2.27;;;;;19.00;100318.00;;;;2070928;28;20769;-47
2022/04/19 04:41:29;;;;;;;2.50;2.30;;;;;19.00;100308.00;;;;2070887;28;20221;-47
2022/04/19 04:42:29;;;;;;;2.90;2.70;;;;;19.00;100310.00;;;;2070747;28;20608;-46
2022/04/19 04:43:30;;;;;;;2.70;2.50;;;;;19.00;100314.00;;;;2070016;28;20221;-47
2022/04/19 04:44:30;;;;;;;3.17;2.50;;;;;19.00;100312.00;;;;2070038;28;20242;-47
2022/04/19 04:45:30;;;;;;;2.77;2.57;;;;;19.00;100313.00;;;;2069246;28;20305;-46
2022/04/19 04:50:28;;;;;;;3.05;2.67;;;;;19.00;100314.00;;;;2080822;28;20331;-47
2022/04/19 04:51:29;;;;;;;3.53;2.70;;;;;19.00;100325.00;;;;2078225;28;20255;-48
2022/04/19 04:52:29;;;;;;;2.70;2.50;;;;;19.00;100319.00;;;;2078735;28;20214;-46
2022/04/19 04:53:30;;;;;;;2.80;2.60;;;;;19.00;100319.00;;;;2078921;28;20240;-46
2022/04/19 04:54:30;;;;;;;2.90;2.70;;;;;19.00;100315.00;;;;2078891;28;20574;-47
2022/04/19 04:55:31;;;;;;;2.83;2.63;;;;;19.00;100320.00;;;;2077723;28;20221;-46
2022/04/19 04:56:31;;;;;;;2.70;2.50;;;;;18.90;100314.00;;;;2078944;28;20323;-45
2022/04/19 04:57:31;;;;;;;3.03;2.50;;;;;19.00;100316.00;;;;2078744;28;20284;-46
2022/04/19 04:58:32;;;;;;;2.57;2.37;;;;;19.00;100314.00;;;;2078996;28;20232;-47
2022/04/19 04:59:33;;;;;;;2.77;2.57;;;;;18.90;100317.00;;;;2079033;28;20255;-46
2022/04/19 05:00:33;;;;;;;3.27;2.90;;;;;19.00;100317.00;;;;2078736;28;20296;-47
2022/04/19 05:01:33;;;;;;;2.67;2.43;;;;;19.00;100319.00;;;;2079052;28;20236;-47
2022/04/19 05:02:34;;;;;;;2.87;2.67;;;;;19.00;100318.00;;;;2078778;28;20224;-45
2022/04/19 05:03:34;;;;;;;3.13;2.83;;;;;18.90;100316.00;;;;2078839;28;20217;-46
2022/04/19 05:04:35;;;;;;;3.00;2.70;;;;;19.00;100322.00;;;;2078885;28;20243;-47
2022/04/19 05:05:35;;;;;;;2.78;2.42;;;;;18.90;100322.00;;;;2077714;28;20252;-47
2022/04/19 05:06:36;;;;;;;2.97;2.57;;;;;18.90;100318.00;;;;2078968;28;20247;-46
2022/04/19 05:07:37;;;;;;;3.60;2.80;;;;;18.90;100322.00;;;;2078467;28;20224;-46
2022/04/19 05:08:37;;;;;;;2.83;2.60;;;;;19.00;100322.00;;;;2078826;28;20621;-46
2022/04/19 05:09:38;;;;;;;2.80;2.60;;;;;18.90;100322.00;;;;2078941;28;20267;-46
2022/04/19 05:10:39;;;;;;;2.80;2.60;;;;;19.00;100331.00;;;;2078782;28;20221;-46
2022/04/19 05:11:42;;;;;;;2.80;2.60;;;;;19.00;100319.00;;;;2078842;28;20488;-47
2022/04/19 05:12:42;;;;;;;3.00;2.72;;;;;19.00;100332.00;;;;2078723;28;20221;-47
2022/04/19 05:13:42;;;;;;;2.83;2.50;;;;;19.00;100322.00;;;;2078492;28;20217;-45